sensor_id;sensor_type;location;lat;lon;timestamp;P1;durP1;ratioP1;P2;durP2;ratioP2
57567;SDS011;43403;51.948;5.922;2023-07-24T00:00:52;4.75;;;2.10;;
57567;SDS011;43403;51.948;5.922;2023-07-24T00:03:19;2.85;;;1.90;;
57567;SDS011;43403;51.948;5.922;2023-07-24T00:05:45;2.70;;;1.95;;
57567;SDS011;43403;51.948;5.922;2023-07-24T00:08:12;2.60;;;1.85;;
57567;SDS011;43403;51.948;5.922;2023-07-24T00:10:38;5.50;;;2.13;;
57567;SDS011;43403;51.948;5.922;2023-07-24T00:13:05;2.90;;;1.65;;
57567;SDS011;43403;51.948;5.922;2023-07-24T00:15:31;3.53;;;2.00;;
57567;SDS011;43403;51.948;5.922;2023-07-24T00:17:58;4.05;;;2.00;;
57567;SDS011;43403;51.948;5.922;2023-07-24T00:20:24;3.58;;;1.85;;
57567;SDS011;43403;51.948;5.922;2023-07-24T00:22:52;2.55;;;1.80;;
57567;SDS011;43403;51.948;5.922;2023-07-24T00:25:18;3.95;;;2.00;;
57567;SDS011;43403;51.948;5.922;2023-07-24T00:27:45;3.70;;;1.88;;
57567;SDS011;43403;51.948;5.922;2023-07-24T00:30:11;3.95;;;2.20;;
57567;SDS011;43403;51.948;5.922;2023-07-24T00:32:38;3.38;;;1.83;;
57567;SDS011;43403;51.948;5.922;2023-07-24T00:35:04;2.53;;;1.77;;
57567;SDS011;43403;51.948;5.922;2023-07-24T00:37:31;5.18;;;2.28;;
57567;SDS011;43403;51.948;5.922;2023-07-24T00:39:58;3.10;;;1.92;;
57567;SDS011;43403;51.948;5.922;2023-07-24T00:42:24;3.53;;;2.30;;
57567;SDS011;43403;51.948;5.922;2023-07-24T00:44:51;3.70;;;2.17;;
57567;SDS011;43403;51.948;5.922;2023-07-24T00:47:17;2.92;;;2.08;;
57567;SDS011;43403;51.948;5.922;2023-07-24T00:49:45;3.78;;;2.00;;
57567;SDS011;43403;51.948;5.922;2023-07-24T00:52:12;3.20;;;2.10;;
57567;SDS011;43403;51.948;5.922;2023-07-24T00:54:39;4.45;;;2.30;;
57567;SDS011;43403;51.948;5.922;2023-07-24T00:57:06;3.65;;;1.77;;
57567;SDS011;43403;51.948;5.922;2023-07-24T00:59:33;5.03;;;2.30;;
57567;SDS011;43403;51.948;5.922;2023-07-24T01:02:00;3.75;;;1.92;;
57567;SDS011;43403;51.948;5.922;2023-07-24T01:04:27;4.28;;;2.13;;
57567;SDS011;43403;51.948;5.922;2023-07-24T01:06:53;4.15;;;2.42;;
57567;SDS011;43403;51.948;5.922;2023-07-24T01:09:21;4.72;;;2.40;;
57567;SDS011;43403;51.948;5.922;2023-07-24T01:11:51;3.60;;;2.40;;
57567;SDS011;43403;51.948;5.922;2023-07-24T01:14:44;4.45;;;2.50;;
57567;SDS011;43403;51.948;5.922;2023-07-24T01:17:16;4.15;;;2.65;;
57567;SDS011;43403;51.948;5.922;2023-07-24T01:19:49;4.93;;;2.90;;
57567;SDS011;43403;51.948;5.922;2023-07-24T01:27:49;4.55;;;3.50;;
57567;SDS011;43403;51.948;5.922;2023-07-24T01:30:19;5.78;;;3.78;;
57567;SDS011;43403;51.948;5.922;2023-07-24T01:32:46;5.32;;;3.17;;
57567;SDS011;43403;51.948;5.922;2023-07-24T01:35:13;5.28;;;3.33;;
57567;SDS011;43403;51.948;5.922;2023-07-24T01:37:40;5.15;;;3.20;;
57567;SDS011;43403;51.948;5.922;2023-07-24T01:40:08;5.00;;;3.17;;
57567;SDS011;43403;51.948;5.922;2023-07-24T01:42:36;5.10;;;3.30;;
57567;SDS011;43403;51.948;5.922;2023-07-24T01:45:04;6.75;;;3.70;;
57567;SDS011;43403;51.948;5.922;2023-07-24T01:47:31;5.97;;;3.15;;
57567;SDS011;43403;51.948;5.922;2023-07-24T01:49:58;6.10;;;3.57;;
57567;SDS011;43403;51.948;5.922;2023-07-24T01:52:26;5.43;;;3.42;;
57567;SDS011;43403;51.948;5.922;2023-07-24T01:54:52;5.15;;;3.13;;
57567;SDS011;43403;51.948;5.922;2023-07-24T01:57:19;5.00;;;3.38;;
57567;SDS011;43403;51.948;5.922;2023-07-24T01:59:45;5.97;;;3.30;;
57567;SDS011;43403;51.948;5.922;2023-07-24T02:02:12;4.70;;;2.80;;
57567;SDS011;43403;51.948;5.922;2023-07-24T02:04:38;4.93;;;3.35;;
57567;SDS011;43403;51.948;5.922;2023-07-24T02:07:04;6.15;;;3.30;;
57567;SDS011;43403;51.948;5.922;2023-07-24T02:09:31;4.85;;;3.22;;
57567;SDS011;43403;51.948;5.922;2023-07-24T02:11:57;7.82;;;3.30;;
57567;SDS011;43403;51.948;5.922;2023-07-24T02:14:24;6.32;;;3.17;;
57567;SDS011;43403;51.948;5.922;2023-07-24T02:16:50;5.07;;;3.00;;
57567;SDS011;43403;51.948;5.922;2023-07-24T02:19:17;4.25;;;3.08;;
57567;SDS011;43403;51.948;5.922;2023-07-24T02:21:43;6.18;;;3.50;;
57567;SDS011;43403;51.948;5.922;2023-07-24T02:24:10;7.95;;;3.75;;
57567;SDS011;43403;51.948;5.922;2023-07-24T02:26:36;4.72;;;3.30;;
57567;SDS011;43403;51.948;5.922;2023-07-24T02:29:03;5.72;;;3.67;;
57567;SDS011;43403;51.948;5.922;2023-07-24T02:31:29;4.85;;;3.65;;
57567;SDS011;43403;51.948;5.922;2023-07-24T02:33:56;5.65;;;3.58;;
57567;SDS011;43403;51.948;5.922;2023-07-24T02:36:22;5.65;;;4.13;;
57567;SDS011;43403;51.948;5.922;2023-07-24T02:38:49;6.80;;;3.78;;
57567;SDS011;43403;51.948;5.922;2023-07-24T02:41:15;5.45;;;3.70;;
57567;SDS011;43403;51.948;5.922;2023-07-24T02:43:42;7.03;;;4.68;;
57567;SDS011;43403;51.948;5.922;2023-07-24T02:46:08;8.10;;;4.78;;
57567;SDS011;43403;51.948;5.922;2023-07-24T02:48:35;7.38;;;5.20;;
57567;SDS011;43403;51.948;5.922;2023-07-24T02:51:01;7.20;;;4.88;;
57567;SDS011;43403;51.948;5.922;2023-07-24T02:53:27;8.43;;;5.75;;
57567;SDS011;43403;51.948;5.922;2023-07-24T02:55:54;7.57;;;5.80;;
57567;SDS011;43403;51.948;5.922;2023-07-24T02:58:20;7.03;;;5.15;;
57567;SDS011;43403;51.948;5.922;2023-07-24T03:00:49;9.68;;;5.18;;
57567;SDS011;43403;51.948;5.922;2023-07-24T03:03:17;8.37;;;5.77;;
57567;SDS011;43403;51.948;5.922;2023-07-24T03:05:44;9.32;;;5.57;;
57567;SDS011;43403;51.948;5.922;2023-07-24T03:08:10;9.07;;;5.63;;
57567;SDS011;43403;51.948;5.922;2023-07-24T03:10:39;11.60;;;5.32;;
57567;SDS011;43403;51.948;5.922;2023-07-24T03:13:07;7.63;;;5.38;;
57567;SDS011;43403;51.948;5.922;2023-07-24T03:15:33;7.63;;;4.85;;
57567;SDS011;43403;51.948;5.922;2023-07-24T03:17:59;8.77;;;5.22;;
57567;SDS011;43403;51.948;5.922;2023-07-24T03:20:26;8.93;;;5.68;;
57567;SDS011;43403;51.948;5.922;2023-07-24T03:22:53;9.60;;;5.43;;
57567;SDS011;43403;51.948;5.922;2023-07-24T03:25:19;9.50;;;5.22;;
57567;SDS011;43403;51.948;5.922;2023-07-24T03:27:46;8.50;;;5.45;;
57567;SDS011;43403;51.948;5.922;2023-07-24T03:30:12;11.77;;;5.82;;
57567;SDS011;43403;51.948;5.922;2023-07-24T03:32:39;8.98;;;5.43;;
57567;SDS011;43403;51.948;5.922;2023-07-24T03:35:06;8.48;;;6.13;;
57567;SDS011;43403;51.948;5.922;2023-07-24T03:37:34;7.07;;;5.32;;
57567;SDS011;43403;51.948;5.922;2023-07-24T03:40:01;7.07;;;5.35;;
57567;SDS011;43403;51.948;5.922;2023-07-24T03:42:29;7.65;;;5.43;;
57567;SDS011;43403;51.948;5.922;2023-07-24T03:47:23;8.82;;;5.55;;
57567;SDS011;43403;51.948;5.922;2023-07-24T03:49:50;7.32;;;5.28;;
57567;SDS011;43403;51.948;5.922;2023-07-24T03:52:17;11.23;;;5.50;;
57567;SDS011;43403;51.948;5.922;2023-07-24T03:54:44;8.80;;;5.90;;
57567;SDS011;43403;51.948;5.922;2023-07-24T03:57:11;9.75;;;5.25;;
57567;SDS011;43403;51.948;5.922;2023-07-24T03:59:37;7.65;;;4.47;;
57567;SDS011;43403;51.948;5.922;2023-07-24T04:02:03;6.88;;;4.18;;
57567;SDS011;43403;51.948;5.922;2023-07-24T04:04:33;9.05;;;4.60;;
57567;SDS011;43403;51.948;5.922;2023-07-24T04:07:00;7.47;;;4.00;;
57567;SDS011;43403;51.948;5.922;2023-07-24T04:09:26;6.22;;;4.22;;
57567;SDS011;43403;51.948;5.922;2023-07-24T04:11:53;5.57;;;4.60;;
57567;SDS011;43403;51.948;5.922;2023-07-24T04:14:19;5.68;;;4.20;;
57567;SDS011;43403;51.948;5.922;2023-07-24T04:16:46;7.95;;;4.57;;
57567;SDS011;43403;51.948;5.922;2023-07-24T04:19:13;5.90;;;4.22;;
57567;SDS011;43403;51.948;5.922;2023-07-24T04:21:39;6.72;;;3.90;;
57567;SDS011;43403;51.948;5.922;2023-07-24T04:24:06;6.43;;;3.80;;
57567;SDS011;43403;51.948;5.922;2023-07-24T04:26:32;5.45;;;3.75;;
57567;SDS011;43403;51.948;5.922;2023-07-24T04:29:02;6.63;;;4.43;;
57567;SDS011;43403;51.948;5.922;2023-07-24T04:31:29;6.15;;;4.03;;
57567;SDS011;43403;51.948;5.922;2023-07-24T04:33:56;6.43;;;4.30;;
57567;SDS011;43403;51.948;5.922;2023-07-24T04:36:22;7.07;;;4.60;;
57567;SDS011;43403;51.948;5.922;2023-07-24T04:38:49;7.38;;;4.30;;
57567;SDS011;43403;51.948;5.922;2023-07-24T04:41:15;7.18;;;4.50;;
57567;SDS011;43403;51.948;5.922;2023-07-24T04:43:43;6.97;;;4.90;;
57567;SDS011;43403;51.948;5.922;2023-07-24T04:46:09;5.70;;;4.07;;
57567;SDS011;43403;51.948;5.922;2023-07-24T04:48:36;7.13;;;4.30;;
57567;SDS011;43403;51.948;5.922;2023-07-24T04:51:02;7.63;;;4.63;;
57567;SDS011;43403;51.948;5.922;2023-07-24T04:53:29;7.10;;;5.03;;
57567;SDS011;43403;51.948;5.922;2023-07-24T04:55:55;6.88;;;5.15;;
57567;SDS011;43403;51.948;5.922;2023-07-24T04:58:22;6.88;;;4.90;;
57567;SDS011;43403;51.948;5.922;2023-07-24T05:00:48;6.18;;;4.70;;
57567;SDS011;43403;51.948;5.922;2023-07-24T05:03:15;8.18;;;4.75;;
57567;SDS011;43403;51.948;5.922;2023-07-24T05:05:43;6.13;;;4.22;;
57567;SDS011;43403;51.948;5.922;2023-07-24T05:08:13;6.97;;;4.53;;
57567;SDS011;43403;51.948;5.922;2023-07-24T05:10:39;7.80;;;4.68;;
57567;SDS011;43403;51.948;5.922;2023-07-24T05:13:06;5.70;;;4.65;;
57567;SDS011;43403;51.948;5.922;2023-07-24T05:15:33;8.18;;;4.93;;
57567;SDS011;43403;51.948;5.922;2023-07-24T05:17:59;6.90;;;4.43;;
57567;SDS011;43403;51.948;5.922;2023-07-24T05:20:26;9.85;;;4.70;;
57567;SDS011;43403;51.948;5.922;2023-07-24T05:22:52;7.30;;;5.50;;
57567;SDS011;43403;51.948;5.922;2023-07-24T05:25:19;8.38;;;5.50;;
57567;SDS011;43403;51.948;5.922;2023-07-24T05:27:45;7.95;;;5.18;;
57567;SDS011;43403;51.948;5.922;2023-07-24T05:30:11;8.07;;;4.97;;
57567;SDS011;43403;51.948;5.922;2023-07-24T05:32:38;13.20;;;5.63;;
57567;SDS011;43403;51.948;5.922;2023-07-24T05:35:04;7.20;;;5.55;;
57567;SDS011;43403;51.948;5.922;2023-07-24T05:37:31;8.98;;;5.47;;
57567;SDS011;43403;51.948;5.922;2023-07-24T05:39:58;10.30;;;5.25;;
57567;SDS011;43403;51.948;5.922;2023-07-24T05:42:24;8.40;;;5.50;;
57567;SDS011;43403;51.948;5.922;2023-07-24T05:44:51;8.23;;;5.80;;
57567;SDS011;43403;51.948;5.922;2023-07-24T05:47:17;8.57;;;6.10;;
57567;SDS011;43403;51.948;5.922;2023-07-24T05:49:44;9.02;;;6.40;;
57567;SDS011;43403;51.948;5.922;2023-07-24T05:52:10;10.55;;;5.97;;
57567;SDS011;43403;51.948;5.922;2023-07-24T05:54:36;8.98;;;6.50;;
57567;SDS011;43403;51.948;5.922;2023-07-24T05:57:03;10.40;;;6.85;;
57567;SDS011;43403;51.948;5.922;2023-07-24T05:59:30;9.23;;;6.40;;
57567;SDS011;43403;51.948;5.922;2023-07-24T06:01:56;9.05;;;6.85;;
57567;SDS011;43403;51.948;5.922;2023-07-24T06:04:23;11.13;;;6.95;;
57567;SDS011;43403;51.948;5.922;2023-07-24T06:06:49;9.73;;;6.78;;
57567;SDS011;43403;51.948;5.922;2023-07-24T06:09:16;9.57;;;6.40;;
57567;SDS011;43403;51.948;5.922;2023-07-24T06:11:44;9.85;;;7.05;;
57567;SDS011;43403;51.948;5.922;2023-07-24T06:14:11;9.57;;;6.63;;
57567;SDS011;43403;51.948;5.922;2023-07-24T06:16:37;11.07;;;7.82;;
57567;SDS011;43403;51.948;5.922;2023-07-24T06:19:04;12.25;;;8.10;;
57567;SDS011;43403;51.948;5.922;2023-07-24T06:21:30;13.80;;;7.80;;
57567;SDS011;43403;51.948;5.922;2023-07-24T06:23:57;11.63;;;7.53;;
57567;SDS011;43403;51.948;5.922;2023-07-24T06:26:23;9.93;;;7.30;;
57567;SDS011;43403;51.948;5.922;2023-07-24T06:28:50;11.98;;;7.63;;
57567;SDS011;43403;51.948;5.922;2023-07-24T06:31:16;12.98;;;8.20;;
57567;SDS011;43403;51.948;5.922;2023-07-24T06:33:43;10.55;;;8.23;;
57567;SDS011;43403;51.948;5.922;2023-07-24T06:36:09;11.90;;;8.40;;
57567;SDS011;43403;51.948;5.922;2023-07-24T06:38:36;10.95;;;8.48;;
57567;SDS011;43403;51.948;5.922;2023-07-24T06:41:03;13.20;;;8.25;;
57567;SDS011;43403;51.948;5.922;2023-07-24T06:43:29;11.77;;;9.32;;
57567;SDS011;43403;51.948;5.922;2023-07-24T06:45:56;11.10;;;8.93;;
57567;SDS011;43403;51.948;5.922;2023-07-24T06:48:22;12.80;;;9.13;;
57567;SDS011;43403;51.948;5.922;2023-07-24T06:50:49;11.82;;;8.45;;
57567;SDS011;43403;51.948;5.922;2023-07-24T06:53:16;13.68;;;9.57;;
57567;SDS011;43403;51.948;5.922;2023-07-24T06:55:43;12.30;;;8.50;;
57567;SDS011;43403;51.948;5.922;2023-07-24T06:58:09;13.32;;;9.52;;
57567;SDS011;43403;51.948;5.922;2023-07-24T07:00:36;11.57;;;9.25;;
57567;SDS011;43403;51.948;5.922;2023-07-24T07:03:02;12.30;;;9.90;;
57567;SDS011;43403;51.948;5.922;2023-07-24T07:05:29;13.30;;;10.30;;
57567;SDS011;43403;51.948;5.922;2023-07-24T07:07:57;12.80;;;9.27;;
57567;SDS011;43403;51.948;5.922;2023-07-24T07:10:24;12.27;;;9.88;;
57567;SDS011;43403;51.948;5.922;2023-07-24T07:12:52;15.13;;;10.38;;
57567;SDS011;43403;51.948;5.922;2023-07-24T07:15:18;13.27;;;10.10;;
57567;SDS011;43403;51.948;5.922;2023-07-24T07:17:45;11.93;;;10.60;;
57567;SDS011;43403;51.948;5.922;2023-07-24T07:20:11;12.90;;;10.95;;
57567;SDS011;43403;51.948;5.922;2023-07-24T07:22:38;14.32;;;10.55;;
57567;SDS011;43403;51.948;5.922;2023-07-24T07:25:04;15.27;;;10.57;;
57567;SDS011;43403;51.948;5.922;2023-07-24T07:27:31;14.32;;;10.32;;
57567;SDS011;43403;51.948;5.922;2023-07-24T07:29:57;14.70;;;11.43;;
57567;SDS011;43403;51.948;5.922;2023-07-24T07:32:24;16.13;;;10.60;;
57567;SDS011;43403;51.948;5.922;2023-07-24T07:34:51;16.67;;;11.52;;
57567;SDS011;43403;51.948;5.922;2023-07-24T07:37:17;15.10;;;10.80;;
57567;SDS011;43403;51.948;5.922;2023-07-24T07:39:44;14.25;;;10.40;;
57567;SDS011;43403;51.948;5.922;2023-07-24T07:42:10;13.63;;;10.98;;
57567;SDS011;43403;51.948;5.922;2023-07-24T07:44:44;14.35;;;10.77;;
57567;SDS011;43403;51.948;5.922;2023-07-24T07:47:11;17.60;;;11.18;;
57567;SDS011;43403;51.948;5.922;2023-07-24T07:49:38;14.60;;;10.50;;
57567;SDS011;43403;51.948;5.922;2023-07-24T07:52:08;14.93;;;11.27;;
57567;SDS011;43403;51.948;5.922;2023-07-24T07:54:35;16.33;;;11.02;;
57567;SDS011;43403;51.948;5.922;2023-07-24T07:57:01;14.75;;;11.90;;
57567;SDS011;43403;51.948;5.922;2023-07-24T07:59:29;16.13;;;10.75;;
57567;SDS011;43403;51.948;5.922;2023-07-24T08:01:57;13.75;;;10.30;;
57567;SDS011;43403;51.948;5.922;2023-07-24T08:04:24;14.30;;;10.57;;
57567;SDS011;43403;51.948;5.922;2023-07-24T08:06:50;15.82;;;11.27;;
57567;SDS011;43403;51.948;5.922;2023-07-24T08:09:17;14.65;;;11.27;;
57567;SDS011;43403;51.948;5.922;2023-07-24T08:11:43;13.73;;;10.63;;
57567;SDS011;43403;51.948;5.922;2023-07-24T08:14:10;12.57;;;9.70;;
57567;SDS011;43403;51.948;5.922;2023-07-24T08:16:36;21.10;;;11.90;;
57567;SDS011;43403;51.948;5.922;2023-07-24T08:19:03;16.20;;;12.48;;
57567;SDS011;43403;51.948;5.922;2023-07-24T08:21:29;17.00;;;12.85;;
57567;SDS011;43403;51.948;5.922;2023-07-24T08:23:56;13.40;;;9.80;;
57567;SDS011;43403;51.948;5.922;2023-07-24T08:26:23;15.15;;;10.48;;
57567;SDS011;43403;51.948;5.922;2023-07-24T08:28:53;11.70;;;9.65;;
57567;SDS011;43403;51.948;5.922;2023-07-24T08:31:19;14.02;;;10.82;;
57567;SDS011;43403;51.948;5.922;2023-07-24T08:33:46;13.32;;;10.25;;
57567;SDS011;43403;51.948;5.922;2023-07-24T08:36:12;13.57;;;9.65;;
57567;SDS011;43403;51.948;5.922;2023-07-24T08:38:39;12.50;;;9.80;;
57567;SDS011;43403;51.948;5.922;2023-07-24T08:41:08;12.02;;;9.85;;
57567;SDS011;43403;51.948;5.922;2023-07-24T08:43:37;12.50;;;9.90;;
57567;SDS011;43403;51.948;5.922;2023-07-24T08:46:06;13.13;;;10.30;;
57567;SDS011;43403;51.948;5.922;2023-07-24T08:48:37;17.42;;;10.27;;
57567;SDS011;43403;51.948;5.922;2023-07-24T08:51:06;14.18;;;10.23;;
57567;SDS011;43403;51.948;5.922;2023-07-24T08:53:35;12.70;;;10.25;;
57567;SDS011;43403;51.948;5.922;2023-07-24T08:56:03;12.15;;;10.48;;
57567;SDS011;43403;51.948;5.922;2023-07-24T08:58:30;16.00;;;10.60;;
57567;SDS011;43403;51.948;5.922;2023-07-24T09:00:57;13.93;;;10.55;;
57567;SDS011;43403;51.948;5.922;2023-07-24T09:03:25;13.95;;;10.23;;
57567;SDS011;43403;51.948;5.922;2023-07-24T09:05:52;11.15;;;9.57;;
57567;SDS011;43403;51.948;5.922;2023-07-24T09:10:59;12.45;;;9.55;;
57567;SDS011;43403;51.948;5.922;2023-07-24T09:15:54;10.93;;;9.48;;
57567;SDS011;43403;51.948;5.922;2023-07-24T09:18:21;11.87;;;9.30;;
57567;SDS011;43403;51.948;5.922;2023-07-24T09:20:48;12.27;;;9.52;;
57567;SDS011;43403;51.948;5.922;2023-07-24T09:23:15;11.82;;;9.85;;
57567;SDS011;43403;51.948;5.922;2023-07-24T09:25:52;10.75;;;9.00;;
57567;SDS011;43403;51.948;5.922;2023-07-24T09:28:19;12.52;;;9.07;;
57567;SDS011;43403;51.948;5.922;2023-07-24T09:30:56;11.35;;;8.80;;
57567;SDS011;43403;51.948;5.922;2023-07-24T09:33:34;12.13;;;7.93;;
57567;SDS011;43403;51.948;5.922;2023-07-24T09:36:06;10.88;;;8.23;;
57567;SDS011;43403;51.948;5.922;2023-07-24T09:38:34;11.10;;;8.73;;
57567;SDS011;43403;51.948;5.922;2023-07-24T09:41:02;11.23;;;8.43;;
57567;SDS011;43403;51.948;5.922;2023-07-24T09:43:29;12.68;;;8.95;;
57567;SDS011;43403;51.948;5.922;2023-07-24T09:46:06;11.38;;;9.00;;
57567;SDS011;43403;51.948;5.922;2023-07-24T09:48:37;10.52;;;7.78;;
57567;SDS011;43403;51.948;5.922;2023-07-24T09:51:08;12.65;;;7.85;;
57567;SDS011;43403;51.948;5.922;2023-07-24T09:53:47;11.23;;;8.05;;
57567;SDS011;43403;51.948;5.922;2023-07-24T09:56:24;14.15;;;8.85;;
57567;SDS011;43403;51.948;5.922;2023-07-24T09:59:12;10.18;;;8.32;;
57567;SDS011;43403;51.948;5.922;2023-07-24T10:04:06;11.82;;;7.68;;
57567;SDS011;43403;51.948;5.922;2023-07-24T10:06:35;9.75;;;7.80;;
57567;SDS011;43403;51.948;5.922;2023-07-24T10:09:03;12.77;;;7.75;;
57567;SDS011;43403;51.948;5.922;2023-07-24T10:11:30;10.48;;;7.63;;
57567;SDS011;43403;51.948;5.922;2023-07-24T10:13:57;11.77;;;7.10;;
57567;SDS011;43403;51.948;5.922;2023-07-24T10:16:24;9.98;;;6.97;;
57567;SDS011;43403;51.948;5.922;2023-07-24T10:18:50;13.13;;;7.28;;
57567;SDS011;43403;51.948;5.922;2023-07-24T10:21:17;10.65;;;6.80;;
57567;SDS011;43403;51.948;5.922;2023-07-24T10:23:44;9.82;;;6.30;;
57567;SDS011;43403;51.948;5.922;2023-07-24T10:26:14;8.52;;;6.60;;
57567;SDS011;43403;51.948;5.922;2023-07-24T10:28:47;8.90;;;6.25;;
57567;SDS011;43403;51.948;5.922;2023-07-24T10:33:48;10.35;;;6.68;;
57567;SDS011;43403;51.948;5.922;2023-07-24T10:36:19;8.55;;;6.50;;
57567;SDS011;43403;51.948;5.922;2023-07-24T10:38:55;9.90;;;7.03;;
57567;SDS011;43403;51.948;5.922;2023-07-24T10:41:22;10.88;;;6.65;;
57567;SDS011;43403;51.948;5.922;2023-07-24T10:43:49;10.00;;;7.40;;
57567;SDS011;43403;51.948;5.922;2023-07-24T10:46:18;8.55;;;7.07;;
57567;SDS011;43403;51.948;5.922;2023-07-24T10:48:50;11.65;;;7.05;;
57567;SDS011;43403;51.948;5.922;2023-07-24T10:51:18;9.75;;;6.97;;
57567;SDS011;43403;51.948;5.922;2023-07-24T10:53:46;8.75;;;6.97;;
57567;SDS011;43403;51.948;5.922;2023-07-24T10:56:13;9.98;;;7.47;;
57567;SDS011;43403;51.948;5.922;2023-07-24T10:58:41;10.43;;;7.40;;
57567;SDS011;43403;51.948;5.922;2023-07-24T11:01:07;9.60;;;7.38;;
57567;SDS011;43403;51.948;5.922;2023-07-24T11:03:35;11.43;;;8.10;;
57567;SDS011;43403;51.948;5.922;2023-07-24T11:06:03;9.63;;;7.73;;
57567;SDS011;43403;51.948;5.922;2023-07-24T11:08:30;13.18;;;9.38;;
57567;SDS011;43403;51.948;5.922;2023-07-24T11:10:57;11.25;;;9.35;;
57567;SDS011;43403;51.948;5.922;2023-07-24T11:13:25;14.38;;;10.52;;
57567;SDS011;43403;51.948;5.922;2023-07-24T11:15:53;11.60;;;9.48;;
57567;SDS011;43403;51.948;5.922;2023-07-24T11:18:21;11.50;;;9.60;;
57567;SDS011;43403;51.948;5.922;2023-07-24T11:23:16;10.48;;;8.60;;
57567;SDS011;43403;51.948;5.922;2023-07-24T11:25:43;10.55;;;8.88;;
57567;SDS011;43403;51.948;5.922;2023-07-24T11:28:12;13.65;;;9.20;;
57567;SDS011;43403;51.948;5.922;2023-07-24T11:30:40;12.35;;;9.73;;
57567;SDS011;43403;51.948;5.922;2023-07-24T11:33:08;13.27;;;9.98;;
57567;SDS011;43403;51.948;5.922;2023-07-24T11:35:36;12.40;;;8.98;;
57567;SDS011;43403;51.948;5.922;2023-07-24T11:38:06;10.82;;;9.02;;
57567;SDS011;43403;51.948;5.922;2023-07-24T11:40:36;10.00;;;8.18;;
57567;SDS011;43403;51.948;5.922;2023-07-24T11:43:04;12.00;;;9.63;;
57567;SDS011;43403;51.948;5.922;2023-07-24T11:45:31;12.85;;;10.00;;
57567;SDS011;43403;51.948;5.922;2023-07-24T11:48:10;11.55;;;10.25;;
57567;SDS011;43403;51.948;5.922;2023-07-24T11:50:44;12.50;;;10.43;;
57567;SDS011;43403;51.948;5.922;2023-07-24T11:53:19;12.60;;;9.52;;
57567;SDS011;43403;51.948;5.922;2023-07-24T11:55:57;10.30;;;8.20;;
57567;SDS011;43403;51.948;5.922;2023-07-24T11:58:25;12.00;;;7.80;;
57567;SDS011;43403;51.948;5.922;2023-07-24T12:00:53;10.32;;;7.32;;
57567;SDS011;43403;51.948;5.922;2023-07-24T12:03:20;10.15;;;8.15;;
57567;SDS011;43403;51.948;5.922;2023-07-24T12:05:53;12.50;;;8.32;;
57567;SDS011;43403;51.948;5.922;2023-07-24T12:08:20;10.98;;;7.40;;
57567;SDS011;43403;51.948;5.922;2023-07-24T12:10:55;10.07;;;7.90;;
57567;SDS011;43403;51.948;5.922;2023-07-24T12:13:22;11.52;;;9.55;;
57567;SDS011;43403;51.948;5.922;2023-07-24T12:15:48;12.00;;;8.90;;
57567;SDS011;43403;51.948;5.922;2023-07-24T12:18:16;13.32;;;8.77;;
57567;SDS011;43403;51.948;5.922;2023-07-24T12:20:42;10.48;;;7.53;;
57567;SDS011;43403;51.948;5.922;2023-07-24T12:23:09;9.20;;;7.20;;
57567;SDS011;43403;51.948;5.922;2023-07-24T12:25:36;9.32;;;6.50;;
57567;SDS011;43403;51.948;5.922;2023-07-24T12:28:02;7.93;;;5.55;;
57567;SDS011;43403;51.948;5.922;2023-07-24T12:30:29;10.18;;;6.40;;
57567;SDS011;43403;51.948;5.922;2023-07-24T12:32:55;8.35;;;6.35;;
57567;SDS011;43403;51.948;5.922;2023-07-24T12:35:22;10.32;;;5.72;;
57567;SDS011;43403;51.948;5.922;2023-07-24T12:37:48;9.23;;;6.07;;
57567;SDS011;43403;51.948;5.922;2023-07-24T12:40:15;12.10;;;5.82;;
57567;SDS011;43403;51.948;5.922;2023-07-24T12:42:41;10.02;;;6.28;;
57567;SDS011;43403;51.948;5.922;2023-07-24T12:45:08;6.88;;;5.15;;
57567;SDS011;43403;51.948;5.922;2023-07-24T12:47:35;8.88;;;5.45;;
57567;SDS011;43403;51.948;5.922;2023-07-24T12:50:01;9.35;;;5.30;;
57567;SDS011;43403;51.948;5.922;2023-07-24T12:52:32;9.70;;;5.63;;
57567;SDS011;43403;51.948;5.922;2023-07-24T12:54:59;7.03;;;5.40;;
57567;SDS011;43403;51.948;5.922;2023-07-24T12:57:27;9.48;;;5.93;;
57567;SDS011;43403;51.948;5.922;2023-07-24T12:59:54;8.73;;;5.60;;
57567;SDS011;43403;51.948;5.922;2023-07-24T13:02:20;9.75;;;5.60;;
57567;SDS011;43403;51.948;5.922;2023-07-24T13:04:47;9.20;;;6.18;;
57567;SDS011;43403;51.948;5.922;2023-07-24T13:07:14;9.15;;;6.03;;
57567;SDS011;43403;51.948;5.922;2023-07-24T13:09:40;10.38;;;7.55;;
57567;SDS011;43403;51.948;5.922;2023-07-24T13:12:07;11.20;;;7.82;;
57567;SDS011;43403;51.948;5.922;2023-07-24T13:14:34;10.85;;;6.35;;
57567;SDS011;43403;51.948;5.922;2023-07-24T13:17:07;10.30;;;6.47;;
57567;SDS011;43403;51.948;5.922;2023-07-24T13:19:34;10.20;;;5.93;;
57567;SDS011;43403;51.948;5.922;2023-07-24T13:22:01;10.40;;;6.88;;
57567;SDS011;43403;51.948;5.922;2023-07-24T13:26:56;8.65;;;5.03;;
57567;SDS011;43403;51.948;5.922;2023-07-24T13:29:22;9.63;;;4.65;;
57567;SDS011;43403;51.948;5.922;2023-07-24T13:31:51;7.82;;;4.30;;
57567;SDS011;43403;51.948;5.922;2023-07-24T13:34:18;8.80;;;3.80;;
57567;SDS011;43403;51.948;5.922;2023-07-24T13:36:46;6.40;;;3.42;;
57567;SDS011;43403;51.948;5.922;2023-07-24T13:39:13;6.72;;;3.40;;
57567;SDS011;43403;51.948;5.922;2023-07-24T13:41:40;5.78;;;3.90;;
57567;SDS011;43403;51.948;5.922;2023-07-24T13:44:06;6.97;;;4.47;;
57567;SDS011;43403;51.948;5.922;2023-07-24T13:46:33;6.80;;;4.30;;
57567;SDS011;43403;51.948;5.922;2023-07-24T13:49:02;7.50;;;3.90;;
57567;SDS011;43403;51.948;5.922;2023-07-24T13:51:29;5.68;;;4.07;;
57567;SDS011;43403;51.948;5.922;2023-07-24T13:53:56;6.55;;;3.67;;
57567;SDS011;43403;51.948;5.922;2023-07-24T13:56:23;6.55;;;4.30;;
57567;SDS011;43403;51.948;5.922;2023-07-24T13:58:50;6.97;;;4.03;;
57567;SDS011;43403;51.948;5.922;2023-07-24T14:01:16;7.68;;;3.83;;
57567;SDS011;43403;51.948;5.922;2023-07-24T14:03:43;8.43;;;4.20;;
57567;SDS011;43403;51.948;5.922;2023-07-24T14:06:09;9.18;;;5.15;;
57567;SDS011;43403;51.948;5.922;2023-07-24T14:08:36;7.32;;;4.32;;
57567;SDS011;43403;51.948;5.922;2023-07-24T14:11:02;7.68;;;4.80;;
57567;SDS011;43403;51.948;5.922;2023-07-24T14:13:29;7.90;;;5.18;;
57567;SDS011;43403;51.948;5.922;2023-07-24T14:15:56;8.07;;;4.75;;
57567;SDS011;43403;51.948;5.922;2023-07-24T14:18:22;8.05;;;4.97;;
57567;SDS011;43403;51.948;5.922;2023-07-24T14:20:48;7.38;;;5.03;;
57567;SDS011;43403;51.948;5.922;2023-07-24T14:23:15;8.43;;;4.57;;
57567;SDS011;43403;51.948;5.922;2023-07-24T14:25:42;9.85;;;5.03;;
57567;SDS011;43403;51.948;5.922;2023-07-24T14:28:08;10.35;;;5.20;;
57567;SDS011;43403;51.948;5.922;2023-07-24T14:30:35;6.80;;;4.22;;
57567;SDS011;43403;51.948;5.922;2023-07-24T14:33:01;7.20;;;4.63;;
57567;SDS011;43403;51.948;5.922;2023-07-24T14:35:28;7.15;;;4.70;;
57567;SDS011;43403;51.948;5.922;2023-07-24T14:37:54;8.57;;;5.38;;
57567;SDS011;43403;51.948;5.922;2023-07-24T14:40:21;9.50;;;5.15;;
57567;SDS011;43403;51.948;5.922;2023-07-24T14:42:47;10.52;;;5.93;;
57567;SDS011;43403;51.948;5.922;2023-07-24T14:45:14;10.60;;;6.63;;
57567;SDS011;43403;51.948;5.922;2023-07-24T14:47:40;10.38;;;7.35;;
57567;SDS011;43403;51.948;5.922;2023-07-24T14:50:07;11.23;;;6.80;;
57567;SDS011;43403;51.948;5.922;2023-07-24T14:52:33;11.10;;;8.00;;
57567;SDS011;43403;51.948;5.922;2023-07-24T14:55:00;14.18;;;8.65;;
57567;SDS011;43403;51.948;5.922;2023-07-24T14:57:27;18.95;;;8.32;;
57567;SDS011;43403;51.948;5.922;2023-07-24T14:59:53;11.88;;;6.35;;
57567;SDS011;43403;51.948;5.922;2023-07-24T15:02:20;13.48;;;7.32;;
57567;SDS011;43403;51.948;5.922;2023-07-24T15:04:46;13.15;;;7.93;;